Time;durP1;ratioP1;P1;durP2;ratioP2;P2;SDS_P1;SDS_P2;PMS_P1;PMS_P2;Temp;Humidity;BMP_temperature;BMP_pressure;BME280_temperature;BME280_humidity;BME280_pressure;Samples;Min_cycle;Max_cycle;Signal;HPM_P1;HPM_P2
2024/01/17 00:00:54;;;;;;;12.60;9.50;;;;;;;;;;43169;294;3030788;-35
2024/01/17 00:03:00;;;;;;;12.70;9.20;;;;;;;;;;43935;282;3030651;-35
2024/01/17 00:04:50;;;;;;;12.60;9.70;;;;;;;;;;43960;274;3031681;-35
2024/01/17 00:06:35;;;;;;;12.60;9.10;;;;;;;;;;43914;289;3032110;-35
2024/01/17 00:08:20;;;;;;;11.60;9.00;;;;;;;;;;43887;282;3030170;-35
2024/01/17 00:10:11;;;;;;;13.50;10.10;;;;;;;;;;43177;270;3031398;-35
2024/01/17 00:12:03;;;;;;;12.50;9.00;;;;;;;;;;43178;286;3031515;-35
2024/01/17 00:13:49;;;;;;;12.30;9.70;;;;;;;;;;43165;286;3030519;-35
2024/01/17 00:15:33;;;;;;;12.10;9.60;;;;;;;;;;43162;282;3030591;-35
2024/01/17 00:17:18;;;;;;;11.80;9.40;;;;;;;;;;43158;286;3037063;-34
2024/01/17 00:19:03;;;;;;;13.10;9.50;;;;;;;;;;43173;286;3030731;-34
2024/01/17 00:20:53;;;;;;;12.90;9.50;;;;;;;;;;43190;286;3031391;-34
2024/01/17 00:22:38;;;;;;;11.80;9.00;;;;;;;;;;43157;286;3032077;-35
2024/01/17 00:24:25;;;;;;;12.10;9.60;;;;;;;;;;43161;286;3030885;-35
2024/01/17 00:26:12;;;;;;;13.00;9.50;;;;;;;;;;43141;286;3030351;-35
2024/01/17 00:27:58;;;;;;;11.80;9.40;;;;;;;;;;43154;295;3031494;-35
2024/01/17 00:29:46;;;;;;;12.30;9.00;;;;;;;;;;43173;286;3030466;-35
2024/01/17 00:31:34;;;;;;;12.20;9.60;;;;;;;;;;43170;286;3031534;-35
2024/01/17 00:33:21;;;;;;;12.70;9.00;;;;;;;;;;43159;282;3031522;-35
2024/01/17 00:35:10;;;;;;;11.80;9.10;;;;;;;;;;43178;286;3029821;-35
2024/01/17 00:36:55;;;;;;;12.60;9.40;;;;;;;;;;43882;290;3031115;-35
2024/01/17 00:38:40;;;;;;;12.60;9.30;;;;;;;;;;43364;282;3030790;-35
2024/01/17 00:40:27;;;;;;;12.50;9.10;;;;;;;;;;43437;286;3030396;-34
2024/01/17 00:42:12;;;;;;;12.20;9.40;;;;;;;;;;43270;286;3029370;-34
2024/01/17 00:43:57;;;;;;;12.00;9.20;;;;;;;;;;43187;286;3030819;-34
2024/01/17 00:45:46;;;;;;;12.50;9.00;;;;;;;;;;43179;286;3030868;-34
2024/01/17 00:47:31;;;;;;;11.40;8.90;;;;;;;;;;43880;282;3030552;-34
2024/01/17 00:49:16;;;;;;;11.20;8.80;;;;;;;;;;43292;286;3030250;-34
2024/01/17 00:51:02;;;;;;;12.80;9.10;;;;;;;;;;43169;282;3030743;-34
2024/01/17 00:52:50;;;;;;;10.90;9.00;;;;;;;;;;43208;285;3030563;-34
2024/01/17 00:54:35;;;;;;;11.30;9.10;;;;;;;;;;43216;286;3031276;-34
2024/01/17 00:56:20;;;;;;;11.30;9.10;;;;;;;;;;43208;274;3031133;-34
2024/01/17 00:58:08;;;;;;;12.10;8.80;;;;;;;;;;43198;286;3038658;-34
2024/01/17 00:59:54;;;;;;;12.20;9.20;;;;;;;;;;43215;282;3030924;-34
2024/01/17 01:01:44;;;;;;;11.50;8.70;;;;;;;;;;43190;274;3032156;-34
2024/01/17 01:03:29;;;;;;;11.90;8.70;;;;;;;;;;43224;286;3031057;-34
2024/01/17 01:05:18;;;;;;;11.60;9.00;;;;;;;;;;43256;286;3031497;-34
2024/01/17 01:07:05;;;;;;;11.50;8.80;;;;;;;;;;42975;286;3314828;-34
2024/01/17 01:08:50;;;;;;;11.40;8.40;;;;;;;;;;43186;286;3031069;-34
2024/01/17 01:10:39;;;;;;;11.30;8.40;;;;;;;;;;43209;282;3031328;-34
2024/01/17 01:12:25;;;;;;;11.60;8.70;;;;;;;;;;43183;286;3030694;-34
2024/01/17 01:14:12;;;;;;;11.00;8.50;;;;;;;;;;43156;283;3031878;-33
2024/01/17 01:16:03;;;;;;;10.30;8.30;;;;;;;;;;43349;286;3031356;-33
2024/01/17 01:17:50;;;;;;;10.50;8.30;;;;;;;;;;43878;285;3031116;-34
2024/01/17 01:19:35;;;;;;;10.40;8.20;;;;;;;;;;43610;285;3031813;-35
2024/01/17 01:21:20;;;;;;;11.00;8.30;;;;;;;;;;43193;286;3030811;-35
2024/01/17 01:23:08;;;;;;;10.80;8.10;;;;;;;;;;43178;282;3030816;-35
2024/01/17 01:24:53;;;;;;;10.50;8.00;;;;;;;;;;43384;285;3031867;-34
2024/01/17 01:26:38;;;;;;;10.90;8.10;;;;;;;;;;43212;285;3030985;-34
2024/01/17 01:28:26;;;;;;;11.30;8.00;;;;;;;;;;43180;285;3031251;-35
2024/01/17 01:30:14;;;;;;;10.30;8.20;;;;;;;;;;43168;286;3031170;-35
2024/01/17 01:31:59;;;;;;;11.30;8.00;;;;;;;;;;43201;285;3030652;-35
2024/01/17 01:33:46;;;;;;;10.40;8.40;;;;;;;;;;43157;285;3030356;-35
2024/01/17 01:35:31;;;;;;;11.40;8.00;;;;;;;;;;43864;286;3031213;-35
2024/01/17 01:37:16;;;;;;;10.60;8.10;;;;;;;;;;43906;274;3030182;-35
2024/01/17 01:39:04;;;;;;;10.40;8.10;;;;;;;;;;43139;286;3037285;-34
2024/01/17 01:40:50;;;;;;;11.40;8.40;;;;;;;;;;43166;286;3030639;-35
2024/01/17 01:42:41;;;;;;;10.80;8.20;;;;;;;;;;43188;274;3031516;-35
2024/01/17 01:44:30;;;;;;;11.00;8.50;;;;;;;;;;43170;274;3030515;-35
2024/01/17 01:46:23;;;;;;;10.40;8.30;;;;;;;;;;43186;282;3031517;-35
2024/01/17 01:48:08;;;;;;;11.50;8.60;;;;;;;;;;43881;286;3030666;-35
2024/01/17 01:49:54;;;;;;;11.20;8.80;;;;;;;;;;43914;286;3030773;-35
2024/01/17 01:51:44;;;;;;;10.70;8.10;;;;;;;;;;43865;282;3031299;-35
2024/01/17 01:53:30;;;;;;;10.50;7.90;;;;;;;;;;43884;274;3031376;-35
2024/01/17 01:55:18;;;;;;;11.10;8.50;;;;;;;;;;43352;286;3030613;-33
2024/01/17 01:57:08;;;;;;;10.40;8.10;;;;;;;;;;43165;286;3030941;-33
2024/01/17 01:58:56;;;;;;;11.60;8.60;;;;;;;;;;43179;274;3031275;-33
2024/01/17 02:00:41;;;;;;;10.70;8.40;;;;;;;;;;43872;282;3031190;-34
2024/01/17 02:02:29;;;;;;;11.00;8.50;;;;;;;;;;43163;295;3031257;-35
2024/01/17 02:04:18;;;;;;;10.60;8.60;;;;;;;;;;43183;286;3031151;-35
2024/01/17 02:06:03;;;;;;;10.70;8.40;;;;;;;;;;43176;286;3030749;-34
2024/01/17 02:07:50;;;;;;;10.80;8.60;;;;;;;;;;43163;285;3030909;-34
2024/01/17 02:09:38;;;;;;;11.10;8.40;;;;;;;;;;43165;295;3030495;-34
2024/01/17 02:11:22;;;;;;;11.30;8.90;;;;;;;;;;43152;295;3030940;-34
2024/01/17 02:13:08;;;;;;;11.50;9.30;;;;;;;;;;43980;274;3030663;-34
2024/01/17 02:14:54;;;;;;;11.40;8.90;;;;;;;;;;43925;282;3030175;-35
2024/01/17 02:16:40;;;;;;;11.40;9.20;;;;;;;;;;43868;286;3031022;-35
2024/01/17 02:18:25;;;;;;;11.20;8.90;;;;;;;;;;43963;274;3031943;-34
2024/01/17 02:20:15;;;;;;;11.80;9.20;;;;;;;;;;43967;282;3037012;-35
2024/01/17 02:22:00;;;;;;;11.80;9.10;;;;;;;;;;43418;295;3030666;-35
2024/01/17 02:23:45;;;;;;;11.80;8.70;;;;;;;;;;43150;286;3031615;-35
2024/01/17 02:25:31;;;;;;;10.60;8.70;;;;;;;;;;43947;286;3030732;-35
2024/01/17 02:27:16;;;;;;;11.80;8.90;;;;;;;;;;43884;282;3030897;-35
2024/01/17 02:29:00;;;;;;;11.50;9.00;;;;;;;;;;43904;282;3030586;-35
2024/01/17 02:30:46;;;;;;;10.90;8.90;;;;;;;;;;43847;286;3031270;-35
2024/01/17 02:32:32;;;;;;;11.70;9.20;;;;;;;;;;43307;282;3031870;-35
2024/01/17 02:34:20;;;;;;;11.40;9.20;;;;;;;;;;43174;286;3030805;-35
2024/01/17 02:36:08;;;;;;;11.10;9.20;;;;;;;;;;43170;286;3030860;-35
2024/01/17 02:37:56;;;;;;;12.00;9.10;;;;;;;;;;43911;274;3031263;-35
2024/01/17 02:39:41;;;;;;;12.30;9.60;;;;;;;;;;43909;282;3030628;-35
2024/01/17 02:41:25;;;;;;;11.80;9.40;;;;;;;;;;43271;286;3031175;-35
2024/01/17 02:43:10;;;;;;;12.70;9.90;;;;;;;;;;43173;286;3030155;-35
2024/01/17 02:44:56;;;;;;;12.10;9.40;;;;;;;;;;43183;295;3030525;-34
2024/01/17 02:46:43;;;;;;;11.80;9.70;;;;;;;;;;43151;295;3029652;-34
2024/01/17 02:48:28;;;;;;;13.00;9.60;;;;;;;;;;43169;286;3030854;-35
2024/01/17 02:50:15;;;;;;;12.10;9.70;;;;;;;;;;43127;282;3031033;-35
2024/01/17 02:52:00;;;;;;;12.10;9.70;;;;;;;;;;43167;282;3030982;-35
2024/01/17 02:53:46;;;;;;;13.50;10.20;;;;;;;;;;43167;286;3030116;-34
2024/01/17 02:55:33;;;;;;;11.70;9.80;;;;;;;;;;43153;286;3030828;-34
2024/01/17 02:57:20;;;;;;;12.60;9.90;;;;;;;;;;43197;270;3030993;-34
2024/01/17 02:59:08;;;;;;;13.30;10.40;;;;;;;;;;43171;286;3030732;-34
2024/01/17 03:00:53;;;;;;;12.50;10.30;;;;;;;;;;43171;286;3038791;-34
2024/01/17 03:02:44;;;;;;;12.50;10.10;;;;;;;;;;43157;286;3031124;-34
2024/01/17 03:04:29;;;;;;;12.90;10.30;;;;;;;;;;43173;282;3030268;-35
2024/01/17 03:06:14;;;;;;;12.50;9.80;;;;;;;;;;43154;286;3031081;-34
2024/01/17 03:07:58;;;;;;;12.00;9.90;;;;;;;;;;43183;286;3030943;-34
2024/01/17 03:09:43;;;;;;;12.00;10.00;;;;;;;;;;43182;285;3031317;-35
2024/01/17 03:11:28;;;;;;;13.30;10.20;;;;;;;;;;43161;282;3037799;-35
2024/01/17 03:13:15;;;;;;;11.90;9.70;;;;;;;;;;43165;286;3031111;-35
2024/01/17 03:15:01;;;;;;;13.00;10.40;;;;;;;;;;43188;285;3030238;-34
2024/01/17 03:16:46;;;;;;;11.90;9.90;;;;;;;;;;43880;283;3031308;-35
2024/01/17 03:18:31;;;;;;;12.30;10.00;;;;;;;;;;43878;286;3030633;-35
2024/01/17 03:20:17;;;;;;;12.10;10.00;;;;;;;;;;43560;285;3030972;-35
2024/01/17 03:22:02;;;;;;;12.40;9.80;;;;;;;;;;43759;282;3030800;-35
2024/01/17 03:23:48;;;;;;;12.30;10.20;;;;;;;;;;43175;286;3030663;-35
2024/01/17 03:25:34;;;;;;;13.60;10.80;;;;;;;;;;43176;286;3032723;-35
2024/01/17 03:27:22;;;;;;;12.80;9.90;;;;;;;;;;43180;282;3031357;-33
2024/01/17 03:29:09;;;;;;;13.40;10.80;;;;;;;;;;43132;283;3031034;-33
2024/01/17 03:30:54;;;;;;;11.90;9.80;;;;;;;;;;43162;286;3030293;-33
2024/01/17 03:32:40;;;;;;;12.40;10.60;;;;;;;;;;43189;286;3031118;-33
2024/01/17 03:34:25;;;;;;;13.40;10.10;;;;;;;;;;43161;286;3030512;-33
2024/01/17 03:36:13;;;;;;;13.30;10.50;;;;;;;;;;43170;286;3030883;-33
2024/01/17 03:37:58;;;;;;;13.40;10.30;;;;;;;;;;43155;286;3030968;-33
2024/01/17 03:39:50;;;;;;;14.70;10.70;;;;;;;;;;43168;274;3030646;-33
2024/01/17 03:41:36;;;;;;;12.60;10.70;;;;;;;;;;43125;282;3031355;-33
2024/01/17 03:43:21;;;;;;;13.10;10.80;;;;;;;;;;43211;279;3028409;-33
2024/01/17 03:45:09;;;;;;;13.00;10.40;;;;;;;;;;43161;285;3032637;-33
2024/01/17 03:46:55;;;;;;;13.10;10.30;;;;;;;;;;43988;282;3031918;-34
2024/01/17 03:48:41;;;;;;;12.80;10.20;;;;;;;;;;43964;285;3030022;-34
2024/01/17 03:50:26;;;;;;;13.00;10.60;;;;;;;;;;43304;270;3030682;-34
2024/01/17 03:52:11;;;;;;;12.90;10.40;;;;;;;;;;43155;286;3038240;-34
2024/01/17 03:53:56;;;;;;;13.10;10.50;;;;;;;;;;43175;286;3032290;-34
2024/01/17 03:55:43;;;;;;;12.80;10.60;;;;;;;;;;43191;286;3031224;-34
2024/01/17 03:57:35;;;;;;;13.00;11.00;;;;;;;;;;43169;286;3030641;-34
2024/01/17 03:59:20;;;;;;;14.40;11.00;;;;;;;;;;43197;286;3031588;-34
2024/01/17 04:01:05;;;;;;;14.00;10.80;;;;;;;;;;43151;279;3031343;-34
2024/01/17 04:02:50;;;;;;;13.00;10.80;;;;;;;;;;43235;286;3030126;-34
2024/01/17 04:04:44;;;;;;;11.90;10.10;;;;;;;;;;43193;286;3030760;-34
2024/01/17 04:06:32;;;;;;;13.60;10.60;;;;;;;;;;43191;285;3030821;-34
2024/01/17 04:08:19;;;;;;;13.40;10.80;;;;;;;;;;43179;285;3031509;-34
2024/01/17 04:10:06;;;;;;;12.50;10.60;;;;;;;;;;43169;282;3030468;-35
2024/01/17 04:11:50;;;;;;;12.80;10.50;;;;;;;;;;43195;278;3030631;-35
2024/01/17 04:13:38;;;;;;;12.60;10.20;;;;;;;;;;43159;286;3030856;-34
2024/01/17 04:15:27;;;;;;;12.80;10.30;;;;;;;;;;43203;286;3031047;-34
2024/01/17 04:17:15;;;;;;;13.60;10.90;;;;;;;;;;43167;285;3031854;-34
2024/01/17 04:19:04;;;;;;;13.10;10.90;;;;;;;;;;43175;286;3031157;-34
2024/01/17 04:20:49;;;;;;;13.00;10.60;;;;;;;;;;43173;282;3030776;-35
2024/01/17 04:22:34;;;;;;;13.40;10.60;;;;;;;;;;43175;286;3031426;-35
2024/01/17 04:24:19;;;;;;;12.20;10.60;;;;;;;;;;43173;285;3030549;-35
2024/01/17 04:26:04;;;;;;;14.30;11.00;;;;;;;;;;43171;286;3031339;-35
2024/01/17 04:27:50;;;;;;;13.90;10.70;;;;;;;;;;43186;285;3030259;-34
2024/01/17 04:29:40;;;;;;;13.70;10.90;;;;;;;;;;43164;285;3030947;-34
2024/01/17 04:31:29;;;;;;;13.50;10.80;;;;;;;;;;43155;286;3031257;-34
2024/01/17 04:33:16;;;;;;;13.50;11.20;;;;;;;;;;43179;285;3037388;-34
2024/01/17 04:35:02;;;;;;;13.20;10.50;;;;;;;;;;43165;285;3031062;-34
2024/01/17 04:36:49;;;;;;;13.80;11.00;;;;;;;;;;43172;286;3030647;-34
2024/01/17 04:38:33;;;;;;;13.40;10.70;;;;;;;;;;43170;295;3030968;-34
2024/01/17 04:40:18;;;;;;;13.00;10.80;;;;;;;;;;43171;285;3031366;-34
2024/01/17 04:42:09;;;;;;;13.00;10.50;;;;;;;;;;43167;286;3031100;-34
2024/01/17 04:43:55;;;;;;;13.00;10.40;;;;;;;;;;43682;282;3030848;-34
2024/01/17 04:45:40;;;;;;;13.00;10.70;;;;;;;;;;43867;285;3031398;-35
2024/01/17 04:47:25;;;;;;;14.00;11.20;;;;;;;;;;43921;274;3030223;-35
2024/01/17 04:49:10;;;;;;;13.40;10.80;;;;;;;;;;43920;286;3030712;-34
2024/01/17 04:50:58;;;;;;;13.10;10.50;;;;;;;;;;43256;290;3030340;-35
2024/01/17 04:52:46;;;;;;;12.60;10.50;;;;;;;;;;43159;282;3031358;-35
2024/01/17 04:54:35;;;;;;;13.00;10.80;;;;;;;;;;43151;285;3030230;-35
2024/01/17 04:56:22;;;;;;;12.10;10.40;;;;;;;;;;43167;282;3031019;-34
2024/01/17 04:58:09;;;;;;;12.60;10.40;;;;;;;;;;43178;282;3030665;-34
2024/01/17 04:59:54;;;;;;;13.40;10.80;;;;;;;;;;43179;282;3030095;-34
2024/01/17 05:01:41;;;;;;;12.80;10.40;;;;;;;;;;43177;282;3031886;-34
2024/01/17 05:03:30;;;;;;;13.50;10.90;;;;;;;;;;43136;286;3030176;-34
2024/01/17 05:05:19;;;;;;;12.80;10.70;;;;;;;;;;43153;286;3031034;-35
2024/01/17 05:07:04;;;;;;;13.00;10.50;;;;;;;;;;43156;282;3031048;-35
2024/01/17 05:08:49;;;;;;;12.90;10.50;;;;;;;;;;43163;286;3031597;-35
2024/01/17 05:10:35;;;;;;;13.00;10.50;;;;;;;;;;43176;286;3030358;-34
2024/01/17 05:12:19;;;;;;;13.30;10.70;;;;;;;;;;43163;285;3030878;-35
2024/01/17 05:14:07;;;;;;;13.10;10.50;;;;;;;;;;43142;282;3037691;-35
2024/01/17 05:15:53;;;;;;;13.90;11.00;;;;;;;;;;43195;286;3031118;-34
2024/01/17 05:17:38;;;;;;;12.60;10.40;;;;;;;;;;43389;286;3030397;-35
2024/01/17 05:19:26;;;;;;;13.20;10.70;;;;;;;;;;43155;286;3030797;-35
2024/01/17 05:21:11;;;;;;;13.50;10.70;;;;;;;;;;43162;286;3030909;-34
2024/01/17 05:22:57;;;;;;;13.00;10.50;;;;;;;;;;43162;282;3031404;-34
2024/01/17 05:24:42;;;;;;;12.40;10.30;;;;;;;;;;43149;282;3037273;-34
2024/01/17 05:26:27;;;;;;;12.40;9.80;;;;;;;;;;43170;286;3032110;-34
2024/01/17 05:28:13;;;;;;;13.20;11.00;;;;;;;;;;43161;282;3030835;-35
2024/01/17 05:29:59;;;;;;;13.00;10.20;;;;;;;;;;43155;295;3031016;-35
2024/01/17 05:31:50;;;;;;;13.70;10.80;;;;;;;;;;43120;283;3032064;-35
2024/01/17 05:33:36;;;;;;;13.00;10.20;;;;;;;;;;43140;285;3030884;-35
2024/01/17 05:35:22;;;;;;;12.90;10.20;;;;;;;;;;43200;274;3030585;-34
2024/01/17 05:37:10;;;;;;;13.00;10.30;;;;;;;;;;43155;274;3031209;-35
2024/01/17 05:38:55;;;;;;;13.00;10.90;;;;;;;;;;43154;285;3031406;-35
2024/01/17 05:40:40;;;;;;;12.90;10.10;;;;;;;;;;43167;286;3031147;-35
2024/01/17 05:42:25;;;;;;;12.80;10.50;;;;;;;;;;43170;285;3030872;-35
2024/01/17 05:44:11;;;;;;;12.80;10.50;;;;;;;;;;43152;286;3030652;-35
2024/01/17 05:46:02;;;;;;;12.00;9.70;;;;;;;;;;43169;286;3031326;-35
2024/01/17 05:47:48;;;;;;;13.30;10.00;;;;;;;;;;43193;286;3030853;-35
2024/01/17 05:49:37;;;;;;;11.70;9.70;;;;;;;;;;43143;287;3031021;-35
2024/01/17 05:51:22;;;;;;;12.80;10.10;;;;;;;;;;43168;286;3030651;-34
2024/01/17 05:53:08;;;;;;;12.10;10.00;;;;;;;;;;43167;286;3030827;-35
2024/01/17 05:54:56;;;;;;;13.00;9.80;;;;;;;;;;43152;295;3031122;-34
2024/01/17 05:56:45;;;;;;;12.80;10.20;;;;;;;;;;43150;286;3031010;-35
2024/01/17 05:58:31;;;;;;;12.10;9.60;;;;;;;;;;43164;287;3030816;-34
2024/01/17 06:00:20;;;;;;;12.60;10.50;;;;;;;;;;43152;286;3030829;-35
2024/01/17 06:02:05;;;;;;;11.90;9.50;;;;;;;;;;43458;286;3030476;-35
2024/01/17 06:03:50;;;;;;;12.00;9.70;;;;;;;;;;43166;286;3030831;-35
2024/01/17 06:05:38;;;;;;;12.20;9.80;;;;;;;;;;43178;286;3037195;-34
2024/01/17 06:07:23;;;;;;;12.40;9.60;;;;;;;;;;43158;286;3030895;-35
2024/01/17 06:09:11;;;;;;;13.20;9.90;;;;;;;;;;43188;286;3031035;-35
2024/01/17 06:11:01;;;;;;;12.50;9.80;;;;;;;;;;43190;286;3032455;-35
2024/01/17 06:12:46;;;;;;;12.40;9.80;;;;;;;;;;43148;286;3032273;-36
2024/01/17 06:14:35;;;;;;;12.00;9.70;;;;;;;;;;43149;286;3031571;-37
2024/01/17 06:16:22;;;;;;;11.90;10.10;;;;;;;;;;43157;286;3030643;-36
2024/01/17 06:18:10;;;;;;;12.10;9.70;;;;;;;;;;43175;286;3031251;-37
2024/01/17 06:20:01;;;;;;;12.30;9.90;;;;;;;;;;43163;286;3030491;-36
2024/01/17 06:21:48;;;;;;;12.50;9.70;;;;;;;;;;43187;286;3031934;-36
2024/01/17 06:23:33;;;;;;;12.20;9.70;;;;;;;;;;43172;295;3030533;-36
2024/01/17 06:25:19;;;;;;;12.40;9.40;;;;;;;;;;43162;295;3030093;-35
2024/01/17 06:27:07;;;;;;;11.80;9.80;;;;;;;;;;43205;278;3031052;-35
2024/01/17 06:28:52;;;;;;;12.60;9.70;;;;;;;;;;43866;282;3030351;-35
2024/01/17 06:30:38;;;;;;;12.30;9.40;;;;;;;;;;43177;286;3031392;-36
2024/01/17 06:32:23;;;;;;;12.10;9.20;;;;;;;;;;43153;282;3030779;-35
2024/01/17 06:34:08;;;;;;;12.20;9.90;;;;;;;;;;43160;286;3031243;-35
2024/01/17 06:35:53;;;;;;;11.40;9.80;;;;;;;;;;43150;286;3031064;-35
2024/01/17 06:37:40;;;;;;;12.10;9.70;;;;;;;;;;43164;286;3032825;-36
2024/01/17 06:39:29;;;;;;;11.70;9.40;;;;;;;;;;43160;286;3031165;-35
2024/01/17 06:41:18;;;;;;;12.50;9.90;;;;;;;;;;43173;286;3030771;-36
2024/01/17 06:43:05;;;;;;;12.00;9.60;;;;;;;;;;43166;286;3030722;-35
2024/01/17 06:44:49;;;;;;;11.40;9.10;;;;;;;;;;43149;278;3028756;-35
2024/01/17 06:46:34;;;;;;;11.60;9.40;;;;;;;;;;43179;274;3037281;-35
2024/01/17 06:48:21;;;;;;;11.60;9.20;;;;;;;;;;43199;286;3030504;-35
2024/01/17 06:50:09;;;;;;;12.90;9.90;;;;;;;;;;43151;278;3031257;-35
2024/01/17 06:51:54;;;;;;;12.20;9.80;;;;;;;;;;43324;286;3030591;-35
2024/01/17 06:53:40;;;;;;;12.40;9.70;;;;;;;;;;43152;286;3030269;-35
2024/01/17 06:55:27;;;;;;;11.40;9.40;;;;;;;;;;43176;282;3030813;-35
2024/01/17 06:57:13;;;;;;;12.80;9.80;;;;;;;;;;43189;275;3031652;-35
2024/01/17 06:58:59;;;;;;;12.30;9.90;;;;;;;;;;43225;286;3030703;-35
2024/01/17 07:00:45;;;;;;;12.10;9.70;;;;;;;;;;43169;285;3031774;-35
2024/01/17 07:02:33;;;;;;;12.50;9.60;;;;;;;;;;43161;285;3030177;-35
2024/01/17 07:04:17;;;;;;;12.40;9.80;;;;;;;;;;43170;282;3031907;-35
2024/01/17 07:06:05;;;;;;;11.60;9.60;;;;;;;;;;43143;278;3030448;-35
2024/01/17 07:07:50;;;;;;;12.10;9.40;;;;;;;;;;43154;286;3031658;-35
2024/01/17 07:09:34;;;;;;;12.40;10.00;;;;;;;;;;43171;286;3031053;-35
2024/01/17 07:11:19;;;;;;;13.30;9.80;;;;;;;;;;43155;286;3031516;-35
2024/01/17 07:13:05;;;;;;;11.80;9.90;;;;;;;;;;43150;286;3030503;-35
2024/01/17 07:14:54;;;;;;;12.10;9.40;;;;;;;;;;43165;286;3030500;-35
2024/01/17 07:16:39;;;;;;;11.90;9.90;;;;;;;;;;43153;285;3031111;-35
2024/01/17 07:18:23;;;;;;;12.60;9.80;;;;;;;;;;43145;286;3031086;-33
2024/01/17 07:20:13;;;;;;;12.00;9.50;;;;;;;;;;43178;286;3030993;-34
2024/01/17 07:21:59;;;;;;;12.30;9.60;;;;;;;;;;43874;282;3031713;-34
2024/01/17 07:23:46;;;;;;;12.20;9.80;;;;;;;;;;43886;282;3030413;-34
2024/01/17 07:25:32;;;;;;;12.30;9.40;;;;;;;;;;43934;278;3031267;-34
2024/01/17 07:27:19;;;;;;;11.90;9.50;;;;;;;;;;43851;286;3036132;-34
2024/01/17 07:29:05;;;;;;;12.30;10.20;;;;;;;;;;43157;282;3030947;-34
2024/01/17 07:30:50;;;;;;;11.70;9.40;;;;;;;;;;43145;282;3030858;-34
2024/01/17 07:32:38;;;;;;;11.70;9.60;;;;;;;;;;43176;286;3031014;-34
2024/01/17 07:34:25;;;;;;;12.20;9.70;;;;;;;;;;43181;286;3030921;-34
2024/01/17 07:36:14;;;;;;;12.20;9.90;;;;;;;;;;43161;286;3031269;-34
2024/01/17 07:38:03;;;;;;;12.10;9.70;;;;;;;;;;43783;295;3030762;-34
2024/01/17 07:39:50;;;;;;;12.20;9.70;;;;;;;;;;43169;286;3030863;-34
2024/01/17 07:41:35;;;;;;;11.50;9.40;;;;;;;;;;43138;286;3030800;-34
2024/01/17 07:43:20;;;;;;;12.90;9.60;;;;;;;;;;43155;286;3030221;-34
2024/01/17 07:45:07;;;;;;;12.40;9.40;;;;;;;;;;43172;286;3031045;-34
2024/01/17 07:46:53;;;;;;;12.50;9.80;;;;;;;;;;43924;282;3030785;-34
2024/01/17 07:48:40;;;;;;;12.00;9.30;;;;;;;;;;43233;286;3031380;-34
2024/01/17 07:50:31;;;;;;;12.80;9.80;;;;;;;;;;43141;286;3031327;-34
2024/01/17 07:52:16;;;;;;;12.00;9.50;;;;;;;;;;43158;286;3030658;-34
2024/01/17 07:54:02;;;;;;;13.10;9.50;;;;;;;;;;43175;279;3031320;-34
2024/01/17 07:55:47;;;;;;;12.50;9.60;;;;;;;;;;43177;282;3030618;-34
2024/01/17 07:57:32;;;;;;;11.70;9.70;;;;;;;;;;43164;286;3030628;-34
2024/01/17 07:59:18;;;;;;;12.90;10.20;;;;;;;;;;43183;286;3030964;-34
2024/01/17 08:01:06;;;;;;;13.00;9.90;;;;;;;;;;43166;286;3031175;-34
2024/01/17 08:02:54;;;;;;;13.10;9.90;;;;;;;;;;43167;286;3031222;-34
2024/01/17 08:04:39;;;;;;;12.50;9.90;;;;;;;;;;43154;296;3030568;-34
2024/01/17 08:06:24;;;;;;;13.00;10.30;;;;;;;;;;43175;286;3033168;-34
2024/01/17 08:08:12;;;;;;;13.10;10.30;;;;;;;;;;43162;282;3038546;-34
2024/01/17 08:09:59;;;;;;;13.40;10.30;;;;;;;;;;43761;286;3030364;-34
2024/01/17 08:11:49;;;;;;;12.70;9.80;;;;;;;;;;43174;282;3030752;-34
2024/01/17 08:13:34;;;;;;;13.40;10.30;;;;;;;;;;43164;286;3031228;-34
2024/01/17 08:15:21;;;;;;;13.80;10.50;;;;;;;;;;43956;282;3030958;-34
2024/01/17 08:17:06;;;;;;;14.30;10.40;;;;;;;;;;43923;282;3030998;-34
2024/01/17 08:18:51;;;;;;;13.20;9.90;;;;;;;;;;43927;278;3030965;-34
2024/01/17 08:20:36;;;;;;;13.40;10.30;;;;;;;;;;43228;286;3030765;-34
2024/01/17 08:22:23;;;;;;;13.10;10.10;;;;;;;;;;43187;286;3030530;-32
2024/01/17 08:24:09;;;;;;;13.80;10.30;;;;;;;;;;43171;286;3030840;-33
2024/01/17 08:25:56;;;;;;;14.40;10.60;;;;;;;;;;43192;286;3030841;-33
2024/01/17 08:27:42;;;;;;;14.00;10.90;;;;;;;;;;43143;282;3031336;-33
2024/01/17 08:29:27;;;;;;;12.60;10.50;;;;;;;;;;43169;294;3031579;-33
2024/01/17 08:31:15;;;;;;;13.00;10.30;;;;;;;;;;43154;282;3031481;-34
2024/01/17 08:33:02;;;;;;;12.50;10.20;;;;;;;;;;43157;286;3031433;-34
2024/01/17 08:34:47;;;;;;;14.50;10.20;;;;;;;;;;43155;282;3030764;-34
2024/01/17 08:36:33;;;;;;;13.60;10.70;;;;;;;;;;43162;282;3030810;-34
2024/01/17 08:38:19;;;;;;;14.00;11.10;;;;;;;;;;43152;281;3030526;-34
2024/01/17 08:40:07;;;;;;;14.70;10.70;;;;;;;;;;43155;286;3030482;-34
2024/01/17 08:41:52;;;;;;;14.00;10.50;;;;;;;;;;43920;282;3031458;-34
2024/01/17 08:43:37;;;;;;;13.70;10.40;;;;;;;;;;43860;286;3030906;-34
2024/01/17 08:45:22;;;;;;;13.60;10.30;;;;;;;;;;43889;286;3031160;-34
2024/01/17 08:47:07;;;;;;;13.90;10.50;;;;;;;;;;43924;274;3030362;-34
2024/01/17 08:48:52;;;;;;;14.40;10.80;;;;;;;;;;43611;294;3030447;-34
2024/01/17 08:50:38;;;;;;;14.00;10.50;;;;;;;;;;43223;286;3030158;-34
2024/01/17 08:52:23;;;;;;;14.30;10.60;;;;;;;;;;43175;286;3031020;-34
2024/01/17 08:54:10;;;;;;;13.30;10.70;;;;;;;;;;43192;282;3030392;-34
2024/01/17 08:55:57;;;;;;;13.10;10.70;;;;;;;;;;43844;285;3030596;-34
2024/01/17 08:57:42;;;;;;;14.70;10.90;;;;;;;;;;43265;286;3030506;-34
2024/01/17 08:59:28;;;;;;;13.40;10.60;;;;;;;;;;43902;282;3030164;-34
2024/01/17 09:01:15;;;;;;;12.70;10.40;;;;;;;;;;43168;286;3030539;-34
2024/01/17 09:03:01;;;;;;;14.00;10.80;;;;;;;;;;43167;286;3031499;-34
2024/01/17 09:04:47;;;;;;;14.10;10.60;;;;;;;;;;43199;286;3031518;-34
2024/01/17 09:06:32;;;;;;;13.70;10.40;;;;;;;;;;43601;286;3031211;-34
2024/01/17 09:08:19;;;;;;;13.70;10.40;;;;;;;;;;43028;294;3161300;-34
2024/01/17 09:10:07;;;;;;;12.00;10.00;;;;;;;;;;43168;270;3031040;-34
2024/01/17 09:11:53;;;;;;;12.70;10.10;;;;;;;;;;43499;286;3030672;-34
2024/01/17 09:13:38;;;;;;;12.70;10.30;;;;;;;;;;43170;274;3030799;-34
2024/01/17 09:15:24;;;;;;;13.00;10.00;;;;;;;;;;43169;286;3032097;-34
2024/01/17 09:17:09;;;;;;;13.70;10.70;;;;;;;;;;43174;285;3030972;-34
2024/01/17 09:18:55;;;;;;;12.70;9.90;;;;;;;;;;43146;286;3031022;-34
2024/01/17 09:20:48;;;;;;;13.10;10.10;;;;;;;;;;43230;286;3030367;-41
2024/01/17 09:22:38;;;;;;;12.70;9.20;;;;;;;;;;43194;283;3031423;-33
2024/01/17 09:24:27;;;;;;;14.80;10.60;;;;;;;;;;43260;283;3032886;-33
2024/01/17 09:26:25;;;;;;;14.00;9.60;;;;;;;;;;43285;272;3031402;-32
2024/01/17 09:28:19;;;;;;;13.20;9.90;;;;;;;;;;43278;284;3031057;-32
2024/01/17 09:30:16;;;;;;;14.30;10.20;;;;;;;;;;43281;285;3037608;-32
2024/01/17 09:32:26;;;;;;;12.80;10.10;;;;;;;;;;43780;271;3031014;-33
2024/01/17 09:34:14;;;;;;;12.50;9.50;;;;;;;;;;44017;279;3031069;-33
2024/01/17 09:36:17;;;;;;;12.30;9.80;;;;;;;;;;43413;272;3031968;-33
2024/01/17 09:38:08;;;;;;;12.90;9.70;;;;;;;;;;43620;275;3031287;-34
2024/01/17 09:39:53;;;;;;;12.30;9.70;;;;;;;;;;43280;292;3030484;-34
2024/01/17 09:41:43;;;;;;;12.10;9.60;;;;;;;;;;43343;283;3030493;-34
2024/01/17 09:43:43;;;;;;;12.40;9.30;;;;;;;;;;43365;283;3031005;-34
2024/01/17 09:45:33;;;;;;;11.40;8.70;;;;;;;;;;43372;284;3029763;-34
2024/01/17 09:47:21;;;;;;;13.40;9.90;;;;;;;;;;43321;283;3031078;-34
2024/01/17 09:49:07;;;;;;;12.70;9.50;;;;;;;;;;43278;280;3030841;-34
2024/01/17 09:51:03;;;;;;;12.30;9.50;;;;;;;;;;43324;275;3037674;-34
2024/01/17 09:53:04;;;;;;;12.00;9.00;;;;;;;;;;43465;284;3030673;-34
2024/01/17 09:54:57;;;;;;;13.30;10.00;;;;;;;;;;43321;284;3030695;-34
2024/01/17 09:57:00;;;;;;;13.20;9.60;;;;;;;;;;43890;279;3031234;-34
2024/01/17 09:58:54;;;;;;;11.80;8.70;;;;;;;;;;43340;280;3032061;-34
2024/01/17 10:00:43;;;;;;;13.20;9.50;;;;;;;;;;43855;284;3030886;-34
2024/01/17 10:02:30;;;;;;;12.20;9.40;;;;;;;;;;43320;272;3031193;-34
2024/01/17 10:04:26;;;;;;;12.80;9.20;;;;;;;;;;43339;284;3031471;-34
2024/01/17 10:06:18;;;;;;;12.00;8.90;;;;;;;;;;43322;275;3031269;-34
2024/01/17 10:08:09;;;;;;;11.80;9.10;;;;;;;;;;43352;284;3031075;-35
2024/01/17 10:09:57;;;;;;;12.00;9.10;;;;;;;;;;43453;279;3030484;-34
2024/01/17 10:11:45;;;;;;;11.40;9.10;;;;;;;;;;43331;275;3030935;-34
2024/01/17 10:13:44;;;;;;;11.90;9.30;;;;;;;;;;43274;279;3031233;-34
2024/01/17 10:15:32;;;;;;;11.90;9.30;;;;;;;;;;43303;284;3030592;-34
2024/01/17 10:17:28;;;;;;;13.00;9.20;;;;;;;;;;43551;275;3030932;-34
2024/01/17 10:19:17;;;;;;;10.90;8.40;;;;;;;;;;43323;276;3031239;-34